Grand Coulee, WA

6:09 PM PDT on October 24, 2014 (GMT -0700)
3 miles ESE of Grand Coulee Dam, in Lincoln County, WA | Change Station
CLOSE
Current Station
Personal Weather Station
Location: Grand Coulee, WA
Elevation: 1575 ft
Nearby Weather Stations
Active Advisory: Wind Advisory

Elev 1575 ft 47.92 °N, 118.94 °W | Updated 9 minutes ago

Overcast
Overcast
51.3 °F
Feels Like 51.3 °F
N
0.0
Wind Variable Wind from ENE
Gusts 3.0 mph

Today
High -- | Low -- °F
--% Chance of Precip.
Yesterday
High -- | Low -- °F
Precip. -- in
7:28 AM 5:50 PM
New Moon, 1% visible
Pressure 30.05 in
Visibility 10.0 miles
Clouds Clear
Dew Point 42 °F
Humidity 69%
Rainfall 0.00 in
Snow Depth Not available.
UV 0 out of 12
Pollen 1.20 out of 12
Air Quality Not available.
Flu Activity Sporadic
METAR KOMK 250053Z AUTO 23003KT 10SM CLR 10/04 A3002 RMK AO2 SLP174 T01000039

More Conditions Fewer Conditions

Pressure 30.05 in
Visibility 10.0 miles
Clouds Clear
Dew Point 42 °F
Humidity 69%
Rainfall 0.00 in
Snow Depth Not available.
UV 0 out of 12
Pollen 1.20 out of 12
Air Quality Not available.
Flu Activity Sporadic
METAR KOMK 250053Z AUTO 23003KT 10SM CLR 10/04 A3002 RMK AO2 SLP174 T01000039

More Conditions Fewer Conditions

10-Day Weather Forecast

Almanac

Astronomy

Oct. 24, 2014 Rise Set
Actual Time 7:28 AM PDT 5:50 PM PDT
Civil Twilight 6:56 AM PDT 6:22 PM PDT
Nautical Twilight 6:20 AM PDT 6:58 PM PDT
Astronomical Twilight 5:44 AM PDT 7:34 PM PDT
Moon 8:15 AM PDT (10/24) 6:30 PM PDT (10/24)
Length of Visible Light 11h 25m
Length of Day
10h 22m
Tomorrow will be 3m 15s shorter.
New Moon, 1% of the Moon is Illuminated
Today
New Moon
Oct 30
First Quarter
Nov 6
Full
Nov 14
Last Quarter
Nov 22
New

Today's Extremes

State Highs State Lows

Community

WunderPhotos

Upload Photos

1,764,737 photos uploaded!

WunderBlogs® & News

Nearby

Snow Depth

Station Depth Elevation
Moses Mountain 0 in 5300 ft
Pope Ridge 0 in 3540 ft
Trough 0 in 5300 ft
Grouse Camp 0 in 5380 ft
Blewett Pass 0 in 4270 ft

Earthquake Activity

City Distance Mag. Time & Date
No recent earthquake activity has been reported nearby.
Minimum magnitude displayed is 2.5.

Coastal Water Temperatures

Place Temperature
No Stations Reporting

Nearby Weather Stations